createdAt,value
2023-03-12T00:02:14.863Z,100895.94
2023-03-12T00:04:42.792Z,100876.97
2023-03-12T00:07:10.735Z,100882.28
2023-03-12T00:09:39.283Z,100884.22
2023-03-12T00:12:08.174Z,100879.78
2023-03-12T00:14:36.064Z,100880.34
2023-03-12T00:17:05.396Z,100884.97
2023-03-12T00:19:33.270Z,100888.75
2023-03-12T00:22:01.216Z,100891.41
2023-03-12T00:24:29.130Z,100875.63
2023-03-12T00:26:57.310Z,100882.44
2023-03-12T00:29:25.227Z,100873.41
2023-03-12T00:31:53.301Z,100890.09
2023-03-12T00:34:22.578Z,100891.91
2023-03-12T00:36:50.505Z,100890.94
2023-03-12T00:39:18.519Z,100895.41
2023-03-12T00:41:46.441Z,100896.09
2023-03-12T00:44:14.418Z,100895.28
2023-03-12T00:46:42.467Z,100894.97
2023-03-12T00:49:11.723Z,100912.56
2023-03-12T00:51:41.083Z,100913.41
2023-03-12T00:54:09.054Z,100899.97
2023-03-12T00:56:36.979Z,100901.94
2023-03-12T00:59:05.048Z,100904.53
2023-03-12T01:01:33.004Z,100905.28
2023-03-12T01:04:00.962Z,100903.63
2023-03-12T01:06:29.066Z,100901.94
2023-03-12T01:08:58.403Z,100902.50
2023-03-12T01:11:26.556Z,100898.16
2023-03-12T01:13:54.486Z,100901.66
2023-03-12T01:16:22.645Z,100904.31
2023-03-12T01:18:50.554Z,100911.75
2023-03-12T01:21:18.477Z,100921.56
2023-03-12T01:23:46.369Z,100920.72
2023-03-12T01:26:15.721Z,100910.94
2023-03-12T01:28:43.778Z,100897.53
2023-03-12T01:31:12.839Z,100893.91
2023-03-12T01:33:40.824Z,100893.50
2023-03-12T01:36:16.848Z,100886.91
2023-03-12T01:38:44.845Z,100870.66
2023-03-12T01:41:12.749Z,100858.34
2023-03-12T01:43:42.382Z,100873.50
2023-03-12T01:46:28.479Z,100877.97
2023-03-12T01:48:59.466Z,100882.59
2023-03-12T01:51:29.262Z,100895.88
2023-03-12T01:53:58.876Z,100897.00
2023-03-12T01:56:27.996Z,100912.41
2023-03-12T01:58:58.975Z,100899.78
2023-03-12T02:01:27.295Z,100907.38
2023-03-12T02:03:55.999Z,100914.38
2023-03-12T02:06:26.714Z,100920.66
2023-03-12T02:08:54.686Z,100924.72
2023-03-12T02:11:22.808Z,100915.84
2023-03-12T02:13:50.873Z,100921.75
2023-03-12T02:16:20.386Z,100956.00
2023-03-12T02:18:48.587Z,100963.97
2023-03-12T02:21:18.301Z,100980.72
2023-03-12T02:23:48.729Z,100982.63
2023-03-12T02:26:18.142Z,100979.47
2023-03-12T02:28:46.587Z,100987.41
2023-03-12T02:31:16.070Z,100985.00
2023-03-12T02:33:44.263Z,100972.81
2023-03-12T02:36:12.581Z,100969.81
2023-03-12T02:38:42.911Z,100960.72
2023-03-12T02:41:16.542Z,100965.06
2023-03-12T02:43:47.106Z,100951.66
2023-03-12T02:46:15.147Z,100946.63
2023-03-12T02:48:43.075Z,100935.16
2023-03-12T02:51:11.551Z,100919.53
2023-03-12T02:53:39.529Z,100945.53
2023-03-12T02:56:08.829Z,100942.34
2023-03-12T02:58:37.513Z,100935.75
2023-03-12T03:01:07.108Z,100947.81
2023-03-12T03:03:35.053Z,100938.16
2023-03-12T03:06:02.969Z,100932.59
2023-03-12T03:08:30.936Z,100954.47
2023-03-12T03:10:59.141Z,100953.13
2023-03-12T03:13:27.269Z,100960.63
2023-03-12T03:15:57.655Z,100969.00
2023-03-12T03:18:27.159Z,100970.97
2023-03-12T03:20:58.327Z,100983.09
2023-03-12T03:23:26.527Z,100994.16
2023-03-12T03:25:54.405Z,101000.88
2023-03-12T03:28:22.671Z,100992.72
2023-03-12T03:30:50.687Z,100991.03
2023-03-12T03:33:18.674Z,100992.00
2023-03-12T03:35:48.977Z,100984.00
2023-03-12T03:38:17.643Z,100975.75
2023-03-12T03:40:45.821Z,100975.03
2023-03-12T03:43:13.956Z,100984.25
2023-03-12T03:45:44.761Z,100976.19
2023-03-12T03:48:12.812Z,100986.56
2023-03-12T03:50:40.890Z,100978.94
2023-03-12T03:53:10.882Z,100990.94
2023-03-12T03:55:39.113Z,100983.66
2023-03-12T03:58:07.855Z,100981.09
2023-03-12T04:00:36.174Z,100973.78
2023-03-12T04:03:04.494Z,100969.31
2023-03-12T04:05:32.974Z,100975.47
2023-03-12T04:08:03.249Z,100985.25
2023-03-12T04:10:34.868Z,100979.00
2023-03-12T04:13:02.865Z,100973.63
2023-03-12T04:15:31.114Z,100968.88
2023-03-12T04:17:59.305Z,100965.97
2023-03-12T04:20:28.709Z,100967.84
2023-03-12T04:22:58.462Z,100971.22
2023-03-12T04:25:26.419Z,100970.66
2023-03-12T04:27:55.719Z,100975.13
2023-03-12T04:30:23.722Z,100988.41
2023-03-12T04:32:51.793Z,100993.06
2023-03-12T04:35:19.798Z,101000.88
2023-03-12T04:37:47.740Z,100994.56
2023-03-12T04:40:16.287Z,100976.81
2023-03-12T04:42:44.214Z,100980.44
2023-03-12T04:45:14.057Z,100974.88
2023-03-12T04:47:46.002Z,100965.34
2023-03-12T04:50:15.625Z,100979.31
2023-03-12T04:52:43.599Z,100993.25
2023-03-12T04:55:12.506Z,100984.88
2023-03-12T04:57:40.866Z,100987.41
2023-03-12T05:00:13.074Z,100979.81
2023-03-12T05:02:42.971Z,100979.13
2023-03-12T05:05:11.960Z,100985.38
2023-03-12T05:07:40.986Z,100990.44
2023-03-12T05:10:09.983Z,100991.53
2023-03-12T05:12:38.145Z,100975.88
2023-03-12T05:15:06.966Z,100994.88
2023-03-12T05:17:35.015Z,100994.88
2023-03-12T05:20:05.258Z,100994.47
2023-03-12T05:22:33.506Z,101006.97
2023-03-12T05:25:01.475Z,101027.31
2023-03-12T05:27:31.786Z,101008.16
2023-03-12T05:29:59.925Z,101021.84
2023-03-12T05:32:28.097Z,101014.75
2023-03-12T05:34:56.064Z,101019.06
2023-03-12T05:37:25.413Z,101019.91
2023-03-12T05:39:54.987Z,101014.59
2023-03-12T05:42:23.101Z,101003.28
2023-03-12T05:44:51.492Z,100980.09
2023-03-12T05:47:21.412Z,100990.81
2023-03-12T05:49:50.040Z,100987.63
2023-03-12T05:52:18.175Z,100997.69
2023-03-12T05:54:47.516Z,100992.78
2023-03-12T05:57:15.572Z,101000.19
2023-03-12T05:59:43.584Z,100989.84
2023-03-12T06:02:11.785Z,100977.69
2023-03-12T06:04:39.856Z,100970.78
2023-03-12T06:07:08.490Z,100980.88
2023-03-12T06:09:36.849Z,100984.53
2023-03-12T06:12:06.966Z,100985.03
2023-03-12T06:14:35.455Z,100986.41
2023-03-12T06:17:03.457Z,100960.41
2023-03-12T06:19:31.460Z,100970.47
2023-03-12T06:21:59.497Z,100977.16
2023-03-12T06:24:29.044Z,100984.44
2023-03-12T06:27:03.097Z,101001.78
2023-03-12T06:29:32.531Z,101003.44
2023-03-12T06:32:00.527Z,100997.81
2023-03-12T06:34:28.561Z,100997.44
2023-03-12T06:36:56.506Z,100999.50
2023-03-12T06:39:24.472Z,101002.16
2023-03-12T06:41:52.486Z,101003.13
2023-03-12T06:44:20.450Z,100999.06
2023-03-12T06:46:49.768Z,100991.94
2023-03-12T06:49:18.070Z,100998.63
2023-03-12T06:51:46.059Z,101005.22
2023-03-12T06:54:13.930Z,101000.59
2023-03-12T06:56:41.826Z,101003.72
2023-03-12T06:59:09.894Z,101000.06
2023-03-12T07:01:38.042Z,100992.50
2023-03-12T07:04:07.736Z,101000.34
2023-03-12T07:06:35.695Z,100997.66
2023-03-12T07:09:04.919Z,100995.59
2023-03-12T07:11:32.836Z,100998.94
2023-03-12T07:14:00.740Z,101001.72
2023-03-12T07:16:28.957Z,101006.91
2023-03-12T07:18:56.856Z,101014.03
2023-03-12T07:21:26.208Z,101022.72
2023-03-12T07:23:54.353Z,101018.22
2023-03-12T07:26:22.285Z,101015.44
2023-03-12T07:28:50.524Z,101021.03
2023-03-12T07:31:18.473Z,101021.16
2023-03-12T07:33:46.497Z,101018.22
2023-03-12T07:36:14.546Z,101020.34
2023-03-12T07:38:44.048Z,101024.38
2023-03-12T07:41:11.996Z,101029.72
2023-03-12T07:43:40.255Z,101030.53
2023-03-12T07:46:08.235Z,101018.22
2023-03-12T07:48:36.131Z,101033.19
2023-03-12T07:51:04.120Z,101034.72
2023-03-12T07:53:32.022Z,101029.94
2023-03-12T07:56:01.428Z,101034.97
2023-03-12T07:58:29.442Z,101032.56
2023-03-12T08:00:57.465Z,101030.75
2023-03-12T08:03:25.892Z,101037.41
2023-03-12T08:05:58.175Z,101018.50
2023-03-12T08:08:26.395Z,101017.22
2023-03-12T08:10:54.464Z,101017.59
2023-03-12T08:13:24.422Z,101007.19
2023-03-12T08:15:52.994Z,100993.28
2023-03-12T08:18:21.055Z,100981.50
2023-03-12T08:20:51.205Z,100986.19
2023-03-12T08:23:19.183Z,100993.19
2023-03-12T08:25:47.408Z,100986.41
2023-03-12T08:28:15.573Z,100976.47
2023-03-12T08:30:48.044Z,100970.69
2023-03-12T08:33:15.949Z,100975.69
2023-03-12T08:35:43.945Z,100968.41
2023-03-12T08:38:12.026Z,100960.09
2023-03-12T08:40:39.965Z,100966.09
2023-03-12T08:43:09.151Z,100968.75
2023-03-12T08:45:37.362Z,100965.47
2023-03-12T08:48:07.086Z,100960.16
2023-03-12T08:50:35.383Z,100949.22
2023-03-12T08:53:03.357Z,100954.75
2023-03-12T08:55:31.252Z,100947.13
2023-03-12T08:57:59.207Z,100945.34
2023-03-12T09:00:27.255Z,100945.06
2023-03-12T09:02:58.255Z,100946.47
2023-03-12T09:05:30.034Z,100941.09
2023-03-12T09:07:58.345Z,100954.09
2023-03-12T09:10:30.290Z,100954.16
2023-03-12T09:12:58.978Z,100952.84
2023-03-12T09:15:26.956Z,100952.72
2023-03-12T09:17:55.781Z,100943.25
2023-03-12T09:20:24.009Z,100964.22
2023-03-12T09:22:53.278Z,100954.59
2023-03-12T09:25:23.236Z,100957.94
2023-03-12T09:27:51.378Z,100961.78
2023-03-12T09:30:20.788Z,100951.66
2023-03-12T09:32:48.810Z,100937.19
2023-03-12T09:35:17.275Z,100947.53
2023-03-12T09:37:45.440Z,100942.75
2023-03-12T09:40:17.147Z,100939.88
2023-03-12T09:42:47.612Z,100947.72
2023-03-12T09:45:17.416Z,100940.25
2023-03-12T09:47:47.983Z,100928.41
2023-03-12T09:50:21.133Z,100930.59
2023-03-12T09:52:51.601Z,100915.44
2023-03-12T09:55:22.505Z,100923.44
2023-03-12T09:57:51.606Z,100906.25
2023-03-12T10:00:21.112Z,100906.78
2023-03-12T10:03:12.177Z,100915.94
2023-03-12T10:05:42.163Z,100925.47
2023-03-12T10:08:25.158Z,100916.44
2023-03-12T10:11:03.078Z,100918.09
2023-03-12T10:13:55.239Z,100923.16
2023-03-12T10:16:31.426Z,100917.84
2023-03-12T10:19:11.249Z,100910.84
2023-03-12T10:21:42.208Z,100911.66
2023-03-12T10:24:17.959Z,100917.16
2023-03-12T10:26:48.635Z,100899.34
2023-03-12T10:29:17.871Z,100917.34
2023-03-12T10:31:51.829Z,100915.16
2023-03-12T10:34:22.143Z,100908.50
2023-03-12T10:36:50.142Z,100927.19
2023-03-12T10:39:18.998Z,100922.53
2023-03-12T10:41:49.181Z,100923.84
2023-03-12T10:44:19.550Z,100922.84
2023-03-12T10:46:55.247Z,100929.84
2023-03-12T10:49:35.816Z,100931.16
2023-03-12T10:52:06.709Z,100931.53
2023-03-12T10:54:37.047Z,100927.84
2023-03-12T10:57:06.728Z,100906.16
2023-03-12T10:59:35.495Z,100912.84
2023-03-12T11:02:03.781Z,100929.19
2023-03-12T11:04:32.158Z,100923.00
2023-03-12T11:07:17.644Z,100924.00
2023-03-12T11:09:45.757Z,100911.47
2023-03-12T11:12:28.247Z,100892.28
2023-03-12T11:14:56.171Z,100880.44
2023-03-12T11:17:24.880Z,100875.94
2023-03-12T11:19:53.015Z,100877.09
2023-03-12T11:22:31.531Z,100848.38
2023-03-12T11:25:00.421Z,100862.72
2023-03-12T11:27:48.914Z,100854.88
2023-03-12T11:30:18.601Z,100837.56
2023-03-12T11:32:47.367Z,100844.38
2023-03-12T11:35:16.294Z,100841.38
2023-03-12T11:37:51.309Z,100827.34
2023-03-12T11:40:22.545Z,100851.53
2023-03-12T11:43:02.651Z,100856.03
2023-03-12T11:45:33.112Z,100850.41
2023-03-12T11:48:07.158Z,100854.41
2023-03-12T11:50:41.814Z,100855.59
2023-03-12T11:53:34.445Z,100846.09
2023-03-12T11:56:08.911Z,100838.41
2023-03-12T11:58:55.128Z,100837.09
2023-03-12T12:01:26.775Z,100838.09
2023-03-12T12:04:37.471Z,100840.75
2023-03-12T12:07:09.983Z,100838.41
2023-03-12T12:09:40.041Z,100835.56
2023-03-12T12:12:14.159Z,100831.34
2023-03-12T12:14:51.198Z,100821.97
2023-03-12T12:17:24.977Z,100802.25
2023-03-12T12:20:09.060Z,100803.56
2023-03-12T12:22:44.673Z,100790.88
2023-03-12T12:25:31.284Z,100785.19
2023-03-12T12:28:08.111Z,100780.84
2023-03-12T12:30:46.307Z,100778.19
2023-03-12T12:33:22.744Z,100770.00
2023-03-12T12:35:51.065Z,100771.84
2023-03-12T12:38:22.105Z,100769.50
2023-03-12T12:40:52.034Z,100771.84
2023-03-12T12:43:28.008Z,100767.13
2023-03-12T12:45:59.507Z,100745.63
2023-03-12T12:48:29.689Z,100735.13
2023-03-12T12:51:00.139Z,100746.13
2023-03-12T12:53:30.895Z,100741.97
2023-03-12T12:56:03.875Z,100737.75
2023-03-12T12:58:44.399Z,100736.41
2023-03-12T13:01:14.619Z,100742.03
2023-03-12T13:03:42.896Z,100738.53
2023-03-12T13:06:11.531Z,100732.72
2023-03-12T13:09:02.334Z,100727.72
2023-03-12T13:11:31.734Z,100723.75
2023-03-12T13:14:20.659Z,100709.44
2023-03-12T13:16:50.307Z,100711.78
2023-03-12T13:19:26.527Z,100709.31
2023-03-12T13:22:01.198Z,100701.50
2023-03-12T13:24:31.286Z,100707.56
2023-03-12T13:27:01.667Z,100707.78
2023-03-12T13:29:40.927Z,100687.50
2023-03-12T13:32:51.821Z,100686.88
2023-03-12T13:35:40.796Z,100683.72
2023-03-12T13:38:13.624Z,100685.72
2023-03-12T13:40:55.462Z,100682.72
2023-03-12T13:43:51.047Z,100677.88
2023-03-12T13:46:38.156Z,100674.06
2023-03-12T13:49:12.298Z,100665.06
2023-03-12T13:51:57.889Z,100649.69
2023-03-12T13:54:28.413Z,100661.56
2023-03-12T13:57:01.116Z,100667.34
2023-03-12T13:59:29.494Z,100668.31
2023-03-12T14:01:59.196Z,100652.25
2023-03-12T14:04:31.788Z,100641.22
2023-03-12T14:07:10.609Z,100642.41
2023-03-12T14:09:40.574Z,100638.75
2023-03-12T14:12:10.677Z,100617.56
2023-03-12T14:14:59.530Z,100625.56
2023-03-12T14:17:28.265Z,100612.53
2023-03-12T14:20:01.435Z,100598.50
2023-03-12T14:22:30.052Z,100595.53
2023-03-12T14:24:58.477Z,100600.03
2023-03-12T14:27:27.687Z,100589.38
2023-03-12T14:29:58.041Z,100590.03
2023-03-12T14:32:28.941Z,100569.38
2023-03-12T14:35:00.144Z,100576.06
2023-03-12T14:37:30.757Z,100567.19
2023-03-12T14:39:59.576Z,100560.19
2023-03-12T14:42:29.780Z,100557.72
2023-03-12T14:44:59.490Z,100546.09
2023-03-12T14:47:27.552Z,100549.03
2023-03-12T14:49:56.854Z,100530.53
2023-03-12T14:52:27.594Z,100515.22
2023-03-12T14:54:57.137Z,100516.22
2023-03-12T14:57:25.869Z,100498.25
2023-03-12T14:59:53.983Z,100502.09
2023-03-12T15:02:21.975Z,100483.81
2023-03-12T15:04:50.249Z,100475.97
2023-03-12T15:07:19.741Z,100475.97
2023-03-12T15:09:50.874Z,100461.63
2023-03-12T15:12:20.521Z,100453.91
2023-03-12T15:14:48.896Z,100438.41
2023-03-12T15:17:17.818Z,100441.19
2023-03-12T15:19:46.063Z,100443.00
2023-03-12T15:22:16.022Z,100428.47
2023-03-12T15:24:44.159Z,100429.13
2023-03-12T15:27:34.880Z,100417.09
2023-03-12T15:30:03.136Z,100411.75
2023-03-12T15:32:31.874Z,100399.78
2023-03-12T15:35:00.328Z,100395.94
2023-03-12T15:37:32.731Z,100376.94
2023-03-12T15:40:02.331Z,100380.44
2023-03-12T15:42:30.303Z,100363.06
2023-03-12T15:45:02.776Z,100364.25
2023-03-12T15:47:31.987Z,100345.63
2023-03-12T15:50:01.526Z,100343.63
2023-03-12T15:52:31.216Z,100344.28
2023-03-12T15:55:09.117Z,100322.09
2023-03-12T15:57:45.946Z,100315.28
2023-03-12T16:00:21.487Z,100294.59
2023-03-12T16:02:56.817Z,100306.09
2023-03-12T16:05:27.139Z,100285.09
2023-03-12T16:07:55.185Z,100292.44
2023-03-12T16:10:24.121Z,100304.84
2023-03-12T16:12:52.240Z,100298.06
2023-03-12T16:15:23.864Z,100277.25
2023-03-12T16:17:54.157Z,100256.94
2023-03-12T16:20:22.155Z,100244.22
2023-03-12T16:22:50.043Z,100243.59
2023-03-12T16:25:17.971Z,100234.56
2023-03-12T16:27:49.325Z,100224.94
2023-03-12T16:30:19.231Z,100209.13
2023-03-12T16:32:48.688Z,100208.59
2023-03-12T16:35:18.044Z,100196.28
2023-03-12T16:37:46.168Z,100192.59
2023-03-12T16:40:24.016Z,100174.13
2023-03-12T16:43:02.544Z,100168.81
2023-03-12T16:45:30.617Z,100159.97
2023-03-12T16:48:01.367Z,100156.66
2023-03-12T16:50:29.556Z,100150.22
2023-03-12T16:52:57.790Z,100146.25
2023-03-12T16:55:27.788Z,100140.25
2023-03-12T16:57:56.951Z,100139.63
2023-03-12T17:00:25.625Z,100118.81
2023-03-12T17:02:57.805Z,100128.88
2023-03-12T17:05:27.294Z,100112.88
2023-03-12T17:07:55.277Z,100117.81
2023-03-12T17:10:23.171Z,100099.47
2023-03-12T17:12:51.223Z,100096.78
2023-03-12T17:15:21.131Z,100097.16
2023-03-12T17:17:49.092Z,100090.16
2023-03-12T17:20:17.803Z,100079.50
2023-03-12T17:22:47.193Z,100080.88
2023-03-12T17:25:20.737Z,100064.59
2023-03-12T17:27:48.708Z,100052.00
2023-03-12T17:30:16.782Z,100065.34
2023-03-12T17:32:44.776Z,100051.25
2023-03-12T17:35:13.025Z,100055.41
2023-03-12T17:37:40.985Z,100045.09
2023-03-12T17:40:11.495Z,100043.47
2023-03-12T17:42:39.928Z,100036.47
2023-03-12T17:45:08.900Z,100041.63
2023-03-12T17:47:36.828Z,100036.09
2023-03-12T17:50:04.862Z,100034.16
2023-03-12T17:52:33.161Z,100027.84
2023-03-12T17:55:01.355Z,100015.78
2023-03-12T17:57:30.915Z,100029.09
2023-03-12T17:59:58.849Z,100025.81
2023-03-12T18:02:26.694Z,100020.50
2023-03-12T18:04:54.646Z,100026.44
2023-03-12T18:07:22.667Z,100019.75
2023-03-12T18:09:50.794Z,100023.69
2023-03-12T18:12:18.992Z,100017.75
2023-03-12T18:14:48.496Z,100011.19
2023-03-12T18:17:16.522Z,100011.28
2023-03-12T18:19:44.745Z,99995.50
2023-03-12T18:22:14.500Z,99983.00
2023-03-12T18:24:42.393Z,99996.03
2023-03-12T18:27:10.319Z,100004.84
2023-03-12T18:29:38.247Z,99991.44
2023-03-12T18:32:07.794Z,99992.28
2023-03-12T18:34:35.846Z,99979.13
2023-03-12T18:37:03.731Z,99977.47
2023-03-12T18:39:31.816Z,99973.72
2023-03-12T18:41:59.769Z,99971.50
2023-03-12T18:44:27.896Z,99968.47
2023-03-12T18:46:56.133Z,99953.78
2023-03-12T18:49:25.478Z,99949.44
2023-03-12T18:51:56.012Z,99951.28
2023-03-12T18:54:24.886Z,99947.63
2023-03-12T18:56:53.070Z,99942.72
2023-03-12T18:59:21.387Z,99942.72
2023-03-12T19:01:49.766Z,99952.56
2023-03-12T19:04:18.612Z,99953.78
2023-03-12T19:06:51.462Z,99941.72
2023-03-12T19:09:19.940Z,99951.72
2023-03-12T19:11:48.136Z,99947.03
2023-03-12T19:14:16.267Z,99957.72
2023-03-12T19:16:44.130Z,99940.06
2023-03-12T19:19:12.140Z,99953.03
2023-03-12T19:21:40.186Z,99942.81
2023-03-12T19:24:10.702Z,99933.34
2023-03-12T19:26:38.642Z,99934.81
2023-03-12T19:29:06.632Z,99930.38
2023-03-12T19:31:34.618Z,99930.19
2023-03-12T19:34:02.613Z,99919.53
2023-03-12T19:36:30.530Z,99928.53
2023-03-12T19:38:59.724Z,99922.09
2023-03-12T19:41:29.278Z,99916.75
2023-03-12T19:43:57.482Z,99910.41
2023-03-12T19:46:25.417Z,99911.13
2023-03-12T19:48:53.367Z,99911.94
2023-03-12T19:51:21.342Z,99888.69
2023-03-12T19:53:49.510Z,99898.22
2023-03-12T19:56:18.581Z,99899.97
2023-03-12T19:58:47.890Z,99894.34
2023-03-12T20:01:15.959Z,99896.06
2023-03-12T20:03:44.084Z,99884.56
2023-03-12T20:06:12.299Z,99890.66
2023-03-12T20:08:40.372Z,99883.03
2023-03-12T20:11:09.518Z,99883.03
2023-03-12T20:13:38.057Z,99877.69
2023-03-12T20:16:08.993Z,99878.56
2023-03-12T20:18:37.121Z,99879.41
2023-03-12T20:21:05.333Z,99873.00
2023-03-12T20:23:33.288Z,99854.94
2023-03-12T20:26:01.245Z,99851.84
2023-03-12T20:28:29.192Z,99811.00
2023-03-12T20:30:57.178Z,99844.66
2023-03-12T20:33:26.480Z,99816.97
2023-03-12T20:35:56.064Z,99807.25
2023-03-12T20:38:24.151Z,99827.25
2023-03-12T20:40:52.076Z,99803.44
2023-03-12T20:43:19.991Z,99814.78
2023-03-12T20:45:48.363Z,99810.88
2023-03-12T20:48:16.326Z,99809.22
2023-03-12T20:50:45.593Z,99799.38
2023-03-12T20:53:13.512Z,99817.22
2023-03-12T20:55:41.487Z,99807.56
2023-03-12T20:58:09.509Z,99802.69
2023-03-12T21:00:37.430Z,99806.41
2023-03-12T21:03:05.331Z,99793.19
2023-03-12T21:05:33.263Z,99785.97
2023-03-12T21:08:02.678Z,99775.06
2023-03-12T21:10:31.627Z,99799.75
2023-03-12T21:12:59.789Z,99792.41
2023-03-12T21:15:27.921Z,99778.47
2023-03-12T21:17:55.839Z,99753.78
2023-03-12T21:20:23.786Z,99753.41
2023-03-12T21:22:51.728Z,99749.28
2023-03-12T21:25:21.118Z,99762.31
2023-03-12T21:27:51.496Z,99742.66
2023-03-12T21:30:20.000Z,99728.69
2023-03-12T21:32:47.903Z,99725.28
2023-03-12T21:35:16.065Z,99735.69
2023-03-12T21:37:43.970Z,99719.28
2023-03-12T21:40:13.207Z,99700.38
2023-03-12T21:42:42.549Z,99664.66
2023-03-12T21:45:12.244Z,99709.34
2023-03-12T21:47:40.480Z,99706.66
2023-03-12T21:50:09.150Z,99683.31
2023-03-12T21:52:43.020Z,99681.06
2023-03-12T21:55:11.932Z,99690.72
2023-03-12T21:57:39.870Z,99675.50
2023-03-12T22:00:13.117Z,99668.72
2023-03-12T22:02:41.548Z,99686.84
2023-03-12T22:05:09.895Z,99663.59
2023-03-12T22:07:37.835Z,99682.47
2023-03-12T22:10:06.053Z,99657.00
2023-03-12T22:12:33.970Z,99659.91
2023-03-12T22:15:01.891Z,99665.63
2023-03-12T22:17:31.723Z,99655.81
2023-03-12T22:19:59.732Z,99652.13
2023-03-12T22:22:27.614Z,99661.75
2023-03-12T22:24:55.576Z,99628.13
2023-03-12T22:27:23.534Z,99655.81
2023-03-12T22:29:53.053Z,99647.56
2023-03-12T22:32:21.176Z,99647.56
2023-03-12T22:34:50.523Z,99620.69
2023-03-12T22:37:18.910Z,99607.53
2023-03-12T22:39:46.772Z,99602.84
2023-03-12T22:42:14.663Z,99597.31
2023-03-12T22:44:42.735Z,99585.63
2023-03-12T22:47:10.739Z,99581.94
2023-03-12T22:49:38.621Z,99581.72
2023-03-12T22:52:08.291Z,99579.88
2023-03-12T22:54:36.280Z,99563.63
2023-03-12T22:57:04.543Z,99566.31
2023-03-12T22:59:32.531Z,99565.09
2023-03-12T23:02:00.473Z,99556.06
2023-03-12T23:04:28.559Z,99554.41
2023-03-12T23:07:11.269Z,99555.25
2023-03-12T23:09:42.817Z,99549.91
2023-03-12T23:12:10.853Z,99553.56
2023-03-12T23:14:38.804Z,99560.56
2023-03-12T23:17:06.778Z,99554.75
2023-03-12T23:19:34.854Z,99532.63
2023-03-12T23:22:02.808Z,99532.97
2023-03-12T23:24:31.311Z,99539.16
2023-03-12T23:27:00.553Z,99533.97
2023-03-12T23:29:28.443Z,99524.97
2023-03-12T23:31:56.370Z,99523.09
2023-03-12T23:34:24.246Z,99529.69
2023-03-12T23:36:52.236Z,99512.84
2023-03-12T23:39:20.156Z,99515.28
2023-03-12T23:41:48.214Z,99498.22
2023-03-12T23:44:17.515Z,99491.50
2023-03-12T23:46:45.971Z,99487.41
2023-03-12T23:49:13.843Z,99474.22
2023-03-12T23:51:41.806Z,99486.19
2023-03-12T23:54:09.704Z,99474.69
2023-03-12T23:56:38.799Z,99472.22
2023-03-12T23:59:07.175Z,99466.88
